sensor_id;sensor_type;location;lat;lon;timestamp;P1;durP1;ratioP1;P2;durP2;ratioP2
59468;SDS011;45277;52.768;18.262;2022-08-26T00:01:16;45.88;;;25.33;;
59468;SDS011;45277;52.768;18.262;2022-08-26T00:02:55;43.53;;;24.77;;
59468;SDS011;45277;52.768;18.262;2022-08-26T00:04:28;49.75;;;26.65;;
59468;SDS011;45277;52.768;18.262;2022-08-26T00:06:02;45.92;;;26.98;;
59468;SDS011;45277;52.768;18.262;2022-08-26T00:07:34;46.60;;;24.88;;
59468;SDS011;45277;52.768;18.262;2022-08-26T00:09:05;44.05;;;26.55;;
59468;SDS011;45277;52.768;18.262;2022-08-26T00:10:39;51.53;;;27.48;;
59468;SDS011;45277;52.768;18.262;2022-08-26T00:12:11;44.53;;;26.63;;
59468;SDS011;45277;52.768;18.262;2022-08-26T00:15:19;52.08;;;26.67;;
59468;SDS011;45277;52.768;18.262;2022-08-26T00:16:53;46.85;;;26.20;;
59468;SDS011;45277;52.768;18.262;2022-08-26T00:18:25;50.75;;;26.98;;
59468;SDS011;45277;52.768;18.262;2022-08-26T00:19:59;47.95;;;27.13;;
59468;SDS011;45277;52.768;18.262;2022-08-26T00:21:31;54.70;;;25.90;;
59468;SDS011;45277;52.768;18.262;2022-08-26T00:23:02;53.90;;;26.83;;
59468;SDS011;45277;52.768;18.262;2022-08-26T00:24:37;53.97;;;26.88;;
59468;SDS011;45277;52.768;18.262;2022-08-26T00:26:10;52.35;;;27.77;;
59468;SDS011;45277;52.768;18.262;2022-08-26T00:27:44;52.88;;;28.77;;
59468;SDS011;45277;52.768;18.262;2022-08-26T00:29:16;60.30;;;29.13;;
59468;SDS011;45277;52.768;18.262;2022-08-26T00:30:48;53.13;;;28.38;;
59468;SDS011;45277;52.768;18.262;2022-08-26T00:32:22;52.55;;;28.88;;
59468;SDS011;45277;52.768;18.262;2022-08-26T00:33:54;58.25;;;28.77;;
59468;SDS011;45277;52.768;18.262;2022-08-26T00:35:26;55.40;;;27.80;;
59468;SDS011;45277;52.768;18.262;2022-08-26T00:38:41;62.92;;;28.80;;
59468;SDS011;45277;52.768;18.262;2022-08-26T00:40:16;58.88;;;28.30;;
59468;SDS011;45277;52.768;18.262;2022-08-26T00:41:52;68.85;;;28.48;;
59468;SDS011;45277;52.768;18.262;2022-08-26T00:43:24;64.28;;;30.30;;
59468;SDS011;45277;52.768;18.262;2022-08-26T00:44:58;57.13;;;29.77;;
59468;SDS011;45277;52.768;18.262;2022-08-26T00:46:31;78.00;;;30.13;;
59468;SDS011;45277;52.768;18.262;2022-08-26T00:48:07;98.25;;;30.55;;
59468;SDS011;45277;52.768;18.262;2022-08-26T00:49:41;107.05;;;30.38;;
59468;SDS011;45277;52.768;18.262;2022-08-26T00:51:18;105.40;;;32.88;;
59468;SDS011;45277;52.768;18.262;2022-08-26T00:52:53;118.72;;;34.83;;
59468;SDS011;45277;52.768;18.262;2022-08-26T00:54:27;126.47;;;34.78;;
59468;SDS011;45277;52.768;18.262;2022-08-26T00:56:15;143.13;;;33.00;;
59468;SDS011;45277;52.768;18.262;2022-08-26T00:57:53;157.73;;;30.85;;
59468;SDS011;45277;52.768;18.262;2022-08-26T00:59:26;156.80;;;33.20;;
59468;SDS011;45277;52.768;18.262;2022-08-26T01:00:59;142.00;;;31.98;;
59468;SDS011;45277;52.768;18.262;2022-08-26T01:02:32;142.80;;;31.50;;
59468;SDS011;45277;52.768;18.262;2022-08-26T01:04:04;169.75;;;31.27;;
59468;SDS011;45277;52.768;18.262;2022-08-26T01:05:39;208.10;;;32.90;;
59468;SDS011;45277;52.768;18.262;2022-08-26T01:07:12;144.98;;;30.00;;
59468;SDS011;45277;52.768;18.262;2022-08-26T01:08:45;113.28;;;28.77;;
59468;SDS011;45277;52.768;18.262;2022-08-26T01:10:23;153.75;;;33.33;;
59468;SDS011;45277;52.768;18.262;2022-08-26T01:11:58;127.60;;;29.45;;
59468;SDS011;45277;52.768;18.262;2022-08-26T01:13:34;121.10;;;29.98;;
59468;SDS011;45277;52.768;18.262;2022-08-26T01:15:09;122.82;;;30.25;;
59468;SDS011;45277;52.768;18.262;2022-08-26T01:16:46;137.75;;;31.38;;
59468;SDS011;45277;52.768;18.262;2022-08-26T01:18:18;122.53;;;29.73;;
59468;SDS011;45277;52.768;18.262;2022-08-26T01:19:53;125.63;;;29.88;;
59468;SDS011;45277;52.768;18.262;2022-08-26T01:23:42;106.72;;;29.05;;
59468;SDS011;45277;52.768;18.262;2022-08-26T01:25:19;112.03;;;29.88;;
59468;SDS011;45277;52.768;18.262;2022-08-26T01:26:57;100.47;;;30.50;;
59468;SDS011;45277;52.768;18.262;2022-08-26T01:28:33;103.10;;;31.67;;
59468;SDS011;45277;52.768;18.262;2022-08-26T01:30:06;82.60;;;32.42;;
59468;SDS011;45277;52.768;18.262;2022-08-26T01:31:41;107.28;;;43.60;;
59468;SDS011;45277;52.768;18.262;2022-08-26T01:33:36;131.50;;;41.88;;
59468;SDS011;45277;52.768;18.262;2022-08-26T01:35:18;129.90;;;45.90;;
59468;SDS011;45277;52.768;18.262;2022-08-26T01:36:52;117.18;;;41.78;;
59468;SDS011;45277;52.768;18.262;2022-08-26T01:38:31;109.95;;;42.45;;
59468;SDS011;45277;52.768;18.262;2022-08-26T01:40:03;153.77;;;48.85;;
59468;SDS011;45277;52.768;18.262;2022-08-26T01:41:36;107.50;;;44.75;;
59468;SDS011;45277;52.768;18.262;2022-08-26T01:43:14;102.53;;;39.22;;
59468;SDS011;45277;52.768;18.262;2022-08-26T01:46:48;116.78;;;34.92;;
59468;SDS011;45277;52.768;18.262;2022-08-26T01:48:23;76.93;;;32.58;;
59468;SDS011;45277;52.768;18.262;2022-08-26T01:49:58;96.03;;;32.85;;
59468;SDS011;45277;52.768;18.262;2022-08-26T01:51:35;93.28;;;33.30;;
59468;SDS011;45277;52.768;18.262;2022-08-26T01:53:10;82.90;;;29.77;;
59468;SDS011;45277;52.768;18.262;2022-08-26T01:54:45;78.00;;;31.67;;
59468;SDS011;45277;52.768;18.262;2022-08-26T01:56:18;116.97;;;31.88;;
59468;SDS011;45277;52.768;18.262;2022-08-26T01:57:53;115.05;;;30.90;;
59468;SDS011;45277;52.768;18.262;2022-08-26T01:59:29;90.75;;;27.55;;
59468;SDS011;45277;52.768;18.262;2022-08-26T02:01:01;69.32;;;26.98;;
59468;SDS011;45277;52.768;18.262;2022-08-26T02:02:47;66.78;;;27.23;;
59468;SDS011;45277;52.768;18.262;2022-08-26T02:04:48;85.82;;;25.73;;
59468;SDS011;45277;52.768;18.262;2022-08-26T02:06:27;68.15;;;26.75;;
59468;SDS011;45277;52.768;18.262;2022-08-26T02:07:59;46.28;;;26.98;;
59468;SDS011;45277;52.768;18.262;2022-08-26T02:09:31;75.68;;;26.13;;
59468;SDS011;45277;52.768;18.262;2022-08-26T02:11:07;65.32;;;26.08;;
59468;SDS011;45277;52.768;18.262;2022-08-26T02:12:40;66.30;;;27.17;;
59468;SDS011;45277;52.768;18.262;2022-08-26T02:14:14;57.67;;;28.38;;
59468;SDS011;45277;52.768;18.262;2022-08-26T02:15:48;76.68;;;31.08;;
59468;SDS011;45277;52.768;18.262;2022-08-26T02:17:22;60.58;;;29.33;;
59468;SDS011;45277;52.768;18.262;2022-08-26T02:19:03;70.13;;;31.15;;
59468;SDS011;45277;52.768;18.262;2022-08-26T02:20:38;81.60;;;35.75;;
59468;SDS011;45277;52.768;18.262;2022-08-26T02:22:11;71.22;;;35.35;;
59468;SDS011;45277;52.768;18.262;2022-08-26T02:23:52;68.85;;;28.92;;
59468;SDS011;45277;52.768;18.262;2022-08-26T02:27:38;56.85;;;28.33;;
59468;SDS011;45277;52.768;18.262;2022-08-26T02:29:21;46.42;;;25.75;;
59468;SDS011;45277;52.768;18.262;2022-08-26T02:31:07;58.30;;;25.02;;
59468;SDS011;45277;52.768;18.262;2022-08-26T02:32:39;40.63;;;25.77;;
59468;SDS011;45277;52.768;18.262;2022-08-26T02:34:12;43.50;;;25.73;;
59468;SDS011;45277;52.768;18.262;2022-08-26T02:35:45;48.90;;;25.73;;
59468;SDS011;45277;52.768;18.262;2022-08-26T02:38:57;44.55;;;25.83;;
59468;SDS011;45277;52.768;18.262;2022-08-26T02:40:36;39.38;;;26.55;;
59468;SDS011;45277;52.768;18.262;2022-08-26T02:42:10;42.85;;;24.02;;
59468;SDS011;45277;52.768;18.262;2022-08-26T02:43:44;39.00;;;25.13;;
59468;SDS011;45277;52.768;18.262;2022-08-26T02:45:17;44.28;;;25.67;;
59468;SDS011;45277;52.768;18.262;2022-08-26T02:46:49;43.15;;;25.75;;
59468;SDS011;45277;52.768;18.262;2022-08-26T02:48:22;46.55;;;26.40;;
59468;SDS011;45277;52.768;18.262;2022-08-26T02:49:54;45.38;;;25.63;;
59468;SDS011;45277;52.768;18.262;2022-08-26T02:51:27;50.08;;;25.02;;
59468;SDS011;45277;52.768;18.262;2022-08-26T02:52:59;59.78;;;24.90;;
59468;SDS011;45277;52.768;18.262;2022-08-26T02:54:31;35.60;;;23.75;;
59468;SDS011;45277;52.768;18.262;2022-08-26T02:56:06;56.03;;;24.58;;
59468;SDS011;45277;52.768;18.262;2022-08-26T02:57:45;47.90;;;23.85;;
59468;SDS011;45277;52.768;18.262;2022-08-26T02:59:24;47.22;;;23.83;;
59468;SDS011;45277;52.768;18.262;2022-08-26T03:00:56;36.65;;;22.92;;
59468;SDS011;45277;52.768;18.262;2022-08-26T03:02:28;37.00;;;23.35;;
59468;SDS011;45277;52.768;18.262;2022-08-26T03:04:02;45.65;;;23.67;;
59468;SDS011;45277;52.768;18.262;2022-08-26T03:05:35;44.30;;;23.50;;
59468;SDS011;45277;52.768;18.262;2022-08-26T03:07:07;36.83;;;22.52;;
59468;SDS011;45277;52.768;18.262;2022-08-26T03:08:39;41.72;;;23.05;;
59468;SDS011;45277;52.768;18.262;2022-08-26T03:10:10;35.25;;;23.00;;
59468;SDS011;45277;52.768;18.262;2022-08-26T03:11:43;36.60;;;21.80;;
59468;SDS011;45277;52.768;18.262;2022-08-26T03:13:16;29.85;;;21.70;;
59468;SDS011;45277;52.768;18.262;2022-08-26T03:14:48;31.40;;;21.55;;
59468;SDS011;45277;52.768;18.262;2022-08-26T03:16:20;29.55;;;20.88;;
59468;SDS011;45277;52.768;18.262;2022-08-26T03:17:52;33.47;;;20.80;;
59468;SDS011;45277;52.768;18.262;2022-08-26T03:19:26;29.58;;;21.42;;
59468;SDS011;45277;52.768;18.262;2022-08-26T03:21:20;32.05;;;21.00;;
59468;SDS011;45277;52.768;18.262;2022-08-26T03:22:51;31.08;;;21.05;;
59468;SDS011;45277;52.768;18.262;2022-08-26T03:24:25;26.42;;;20.30;;
59468;SDS011;45277;52.768;18.262;2022-08-26T03:25:58;31.65;;;22.10;;
59468;SDS011;45277;52.768;18.262;2022-08-26T03:27:32;30.92;;;22.38;;
59468;SDS011;45277;52.768;18.262;2022-08-26T03:29:06;32.42;;;23.48;;
59468;SDS011;45277;52.768;18.262;2022-08-26T03:30:57;35.85;;;22.85;;
59468;SDS011;45277;52.768;18.262;2022-08-26T03:32:29;37.75;;;22.20;;
59468;SDS011;45277;52.768;18.262;2022-08-26T03:34:01;35.42;;;23.15;;
59468;SDS011;45277;52.768;18.262;2022-08-26T03:35:33;35.75;;;23.90;;
59468;SDS011;45277;52.768;18.262;2022-08-26T03:37:05;35.45;;;23.48;;
59468;SDS011;45277;52.768;18.262;2022-08-26T03:38:38;33.90;;;23.67;;
59468;SDS011;45277;52.768;18.262;2022-08-26T03:40:11;36.30;;;24.23;;
59468;SDS011;45277;52.768;18.262;2022-08-26T03:41:43;36.72;;;23.80;;
59468;SDS011;45277;52.768;18.262;2022-08-26T03:43:15;31.98;;;23.75;;
59468;SDS011;45277;52.768;18.262;2022-08-26T03:44:47;34.00;;;24.70;;
59468;SDS011;45277;52.768;18.262;2022-08-26T03:46:20;30.60;;;23.98;;
59468;SDS011;45277;52.768;18.262;2022-08-26T03:47:54;35.50;;;24.45;;
59468;SDS011;45277;52.768;18.262;2022-08-26T03:49:26;33.20;;;23.67;;
59468;SDS011;45277;52.768;18.262;2022-08-26T03:50:59;35.03;;;24.75;;
59468;SDS011;45277;52.768;18.262;2022-08-26T03:52:31;32.13;;;25.17;;
59468;SDS011;45277;52.768;18.262;2022-08-26T03:54:06;33.85;;;25.10;;
59468;SDS011;45277;52.768;18.262;2022-08-26T03:55:38;42.92;;;28.38;;
59468;SDS011;45277;52.768;18.262;2022-08-26T03:57:11;46.50;;;30.83;;
59468;SDS011;45277;52.768;18.262;2022-08-26T03:58:42;37.97;;;28.73;;
59468;SDS011;45277;52.768;18.262;2022-08-26T04:00:15;39.83;;;29.10;;
59468;SDS011;45277;52.768;18.262;2022-08-26T04:01:49;38.75;;;30.27;;
59468;SDS011;45277;52.768;18.262;2022-08-26T04:03:20;41.47;;;31.88;;
59468;SDS011;45277;52.768;18.262;2022-08-26T04:05:12;42.28;;;31.50;;
59468;SDS011;45277;52.768;18.262;2022-08-26T04:06:46;41.28;;;31.35;;
59468;SDS011;45277;52.768;18.262;2022-08-26T04:08:19;44.45;;;29.20;;
59468;SDS011;45277;52.768;18.262;2022-08-26T04:09:56;41.10;;;31.10;;
59468;SDS011;45277;52.768;18.262;2022-08-26T04:11:30;41.20;;;30.20;;
59468;SDS011;45277;52.768;18.262;2022-08-26T04:13:14;40.78;;;30.38;;
59468;SDS011;45277;52.768;18.262;2022-08-26T04:14:48;37.65;;;26.90;;
59468;SDS011;45277;52.768;18.262;2022-08-26T04:16:20;35.45;;;25.40;;
59468;SDS011;45277;52.768;18.262;2022-08-26T04:17:59;32.38;;;24.52;;
59468;SDS011;45277;52.768;18.262;2022-08-26T04:19:30;31.90;;;25.58;;
59468;SDS011;45277;52.768;18.262;2022-08-26T04:21:08;31.60;;;23.42;;
59468;SDS011;45277;52.768;18.262;2022-08-26T04:22:43;29.95;;;23.70;;
59468;SDS011;45277;52.768;18.262;2022-08-26T04:24:18;37.35;;;23.75;;
59468;SDS011;45277;52.768;18.262;2022-08-26T04:26:04;30.95;;;23.10;;
59468;SDS011;45277;52.768;18.262;2022-08-26T04:27:38;28.75;;;22.27;;
59468;SDS011;45277;52.768;18.262;2022-08-26T04:29:13;28.38;;;22.33;;
59468;SDS011;45277;52.768;18.262;2022-08-26T04:30:50;30.02;;;23.63;;
59468;SDS011;45277;52.768;18.262;2022-08-26T04:32:21;29.58;;;23.40;;
59468;SDS011;45277;52.768;18.262;2022-08-26T04:33:56;35.22;;;24.08;;
59468;SDS011;45277;52.768;18.262;2022-08-26T04:35:28;29.45;;;24.60;;
59468;SDS011;45277;52.768;18.262;2022-08-26T04:37:00;31.95;;;25.08;;
59468;SDS011;45277;52.768;18.262;2022-08-26T04:38:32;33.95;;;24.60;;
59468;SDS011;45277;52.768;18.262;2022-08-26T04:40:06;31.77;;;24.67;;
59468;SDS011;45277;52.768;18.262;2022-08-26T04:41:40;31.88;;;23.88;;
59468;SDS011;45277;52.768;18.262;2022-08-26T04:43:11;33.00;;;24.25;;
59468;SDS011;45277;52.768;18.262;2022-08-26T04:44:43;33.88;;;24.42;;
59468;SDS011;45277;52.768;18.262;2022-08-26T04:46:16;34.88;;;25.67;;
59468;SDS011;45277;52.768;18.262;2022-08-26T04:47:52;31.42;;;25.58;;
59468;SDS011;45277;52.768;18.262;2022-08-26T04:49:26;32.92;;;25.60;;
59468;SDS011;45277;52.768;18.262;2022-08-26T04:50:58;32.67;;;25.30;;
59468;SDS011;45277;52.768;18.262;2022-08-26T04:52:42;31.90;;;25.42;;
59468;SDS011;45277;52.768;18.262;2022-08-26T04:54:14;32.95;;;25.38;;
59468;SDS011;45277;52.768;18.262;2022-08-26T04:55:46;36.78;;;26.77;;
59468;SDS011;45277;52.768;18.262;2022-08-26T04:57:17;36.10;;;29.00;;
59468;SDS011;45277;52.768;18.262;2022-08-26T04:58:49;33.45;;;27.02;;
59468;SDS011;45277;52.768;18.262;2022-08-26T05:00:21;36.13;;;26.67;;
59468;SDS011;45277;52.768;18.262;2022-08-26T05:01:54;35.97;;;26.00;;
59468;SDS011;45277;52.768;18.262;2022-08-26T05:03:26;31.85;;;24.38;;
59468;SDS011;45277;52.768;18.262;2022-08-26T05:04:58;30.92;;;24.05;;
59468;SDS011;45277;52.768;18.262;2022-08-26T05:06:30;33.13;;;24.02;;
59468;SDS011;45277;52.768;18.262;2022-08-26T05:08:02;29.60;;;24.20;;
59468;SDS011;45277;52.768;18.262;2022-08-26T05:09:35;33.13;;;23.60;;
59468;SDS011;45277;52.768;18.262;2022-08-26T05:11:10;29.65;;;23.50;;
59468;SDS011;45277;52.768;18.262;2022-08-26T05:12:43;29.58;;;23.95;;
59468;SDS011;45277;52.768;18.262;2022-08-26T05:14:14;33.75;;;24.80;;
59468;SDS011;45277;52.768;18.262;2022-08-26T05:15:47;32.60;;;24.50;;
59468;SDS011;45277;52.768;18.262;2022-08-26T05:17:19;31.73;;;22.60;;
59468;SDS011;45277;52.768;18.262;2022-08-26T05:18:53;29.10;;;24.25;;
59468;SDS011;45277;52.768;18.262;2022-08-26T05:20:26;31.25;;;24.35;;
59468;SDS011;45277;52.768;18.262;2022-08-26T05:21:57;31.58;;;23.77;;
59468;SDS011;45277;52.768;18.262;2022-08-26T05:23:33;33.10;;;24.13;;
59468;SDS011;45277;52.768;18.262;2022-08-26T05:25:07;28.60;;;23.13;;
59468;SDS011;45277;52.768;18.262;2022-08-26T05:26:38;27.02;;;23.02;;
59468;SDS011;45277;52.768;18.262;2022-08-26T05:28:13;33.70;;;22.20;;
59468;SDS011;45277;52.768;18.262;2022-08-26T05:29:46;30.10;;;21.65;;
59468;SDS011;45277;52.768;18.262;2022-08-26T05:31:18;26.20;;;21.88;;
59468;SDS011;45277;52.768;18.262;2022-08-26T05:32:52;28.35;;;21.73;;
59468;SDS011;45277;52.768;18.262;2022-08-26T05:34:23;28.25;;;21.75;;
59468;SDS011;45277;52.768;18.262;2022-08-26T05:36:01;25.13;;;19.77;;
59468;SDS011;45277;52.768;18.262;2022-08-26T05:37:38;25.85;;;20.92;;
59468;SDS011;45277;52.768;18.262;2022-08-26T05:39:11;23.75;;;20.58;;
59468;SDS011;45277;52.768;18.262;2022-08-26T05:40:47;24.30;;;19.38;;
59468;SDS011;45277;52.768;18.262;2022-08-26T05:42:32;25.45;;;19.23;;
59468;SDS011;45277;52.768;18.262;2022-08-26T05:44:28;23.42;;;18.63;;
59468;SDS011;45277;52.768;18.262;2022-08-26T05:46:04;26.83;;;19.10;;
59468;SDS011;45277;52.768;18.262;2022-08-26T05:47:38;21.17;;;18.15;;
59468;SDS011;45277;52.768;18.262;2022-08-26T05:49:11;26.08;;;18.38;;
59468;SDS011;45277;52.768;18.262;2022-08-26T05:50:47;23.63;;;18.35;;
59468;SDS011;45277;52.768;18.262;2022-08-26T05:52:20;26.55;;;16.27;;
59468;SDS011;45277;52.768;18.262;2022-08-26T05:53:53;25.65;;;17.73;;
59468;SDS011;45277;52.768;18.262;2022-08-26T05:55:25;21.48;;;16.52;;
59468;SDS011;45277;52.768;18.262;2022-08-26T05:56:57;21.75;;;14.90;;
59468;SDS011;45277;52.768;18.262;2022-08-26T05:58:32;16.15;;;13.63;;
59468;SDS011;45277;52.768;18.262;2022-08-26T06:00:05;16.08;;;12.82;;
59468;SDS011;45277;52.768;18.262;2022-08-26T06:01:43;16.35;;;11.90;;
59468;SDS011;45277;52.768;18.262;2022-08-26T06:03:17;17.65;;;11.38;;
59468;SDS011;45277;52.768;18.262;2022-08-26T06:04:49;16.35;;;11.27;;
59468;SDS011;45277;52.768;18.262;2022-08-26T06:06:23;16.35;;;11.60;;
59468;SDS011;45277;52.768;18.262;2022-08-26T06:07:58;20.80;;;11.25;;
59468;SDS011;45277;52.768;18.262;2022-08-26T06:09:46;16.33;;;10.75;;
59468;SDS011;45277;52.768;18.262;2022-08-26T06:11:19;18.23;;;10.65;;
59468;SDS011;45277;52.768;18.262;2022-08-26T06:12:59;17.20;;;11.00;;
59468;SDS011;45277;52.768;18.262;2022-08-26T06:14:32;12.77;;;9.88;;
59468;SDS011;45277;52.768;18.262;2022-08-26T06:16:08;14.70;;;10.70;;
59468;SDS011;45277;52.768;18.262;2022-08-26T06:17:42;15.93;;;9.80;;
59468;SDS011;45277;52.768;18.262;2022-08-26T06:19:14;15.15;;;10.18;;
59468;SDS011;45277;52.768;18.262;2022-08-26T06:20:46;16.42;;;10.13;;
59468;SDS011;45277;52.768;18.262;2022-08-26T06:22:18;18.75;;;10.07;;
59468;SDS011;45277;52.768;18.262;2022-08-26T06:24:10;17.27;;;10.15;;
59468;SDS011;45277;52.768;18.262;2022-08-26T06:26:03;12.20;;;9.02;;
59468;SDS011;45277;52.768;18.262;2022-08-26T06:27:37;17.98;;;9.52;;
59468;SDS011;45277;52.768;18.262;2022-08-26T06:29:09;12.68;;;8.82;;
59468;SDS011;45277;52.768;18.262;2022-08-26T06:30:42;17.77;;;9.00;;
59468;SDS011;45277;52.768;18.262;2022-08-26T06:32:15;14.20;;;8.45;;
59468;SDS011;45277;52.768;18.262;2022-08-26T06:33:47;12.23;;;8.88;;
59468;SDS011;45277;52.768;18.262;2022-08-26T06:35:19;16.38;;;9.27;;
59468;SDS011;45277;52.768;18.262;2022-08-26T06:36:50;11.55;;;8.00;;
59468;SDS011;45277;52.768;18.262;2022-08-26T06:38:23;15.52;;;8.35;;
59468;SDS011;45277;52.768;18.262;2022-08-26T06:39:55;15.55;;;8.70;;
59468;SDS011;45277;52.768;18.262;2022-08-26T06:41:27;15.38;;;8.05;;
59468;SDS011;45277;52.768;18.262;2022-08-26T06:43:03;13.40;;;8.55;;
59468;SDS011;45277;52.768;18.262;2022-08-26T06:44:42;16.33;;;7.80;;
59468;SDS011;45277;52.768;18.262;2022-08-26T06:46:15;15.52;;;7.38;;
59468;SDS011;45277;52.768;18.262;2022-08-26T06:47:48;15.95;;;6.85;;
59468;SDS011;45277;52.768;18.262;2022-08-26T06:49:20;15.75;;;7.82;;
59468;SDS011;45277;52.768;18.262;2022-08-26T06:51:00;13.18;;;8.20;;
59468;SDS011;45277;52.768;18.262;2022-08-26T06:52:39;16.85;;;8.43;;
59468;SDS011;45277;52.768;18.262;2022-08-26T06:54:12;15.70;;;8.00;;
59468;SDS011;45277;52.768;18.262;2022-08-26T06:55:44;18.67;;;7.95;;
59468;SDS011;45277;52.768;18.262;2022-08-26T06:57:17;12.63;;;7.15;;
59468;SDS011;45277;52.768;18.262;2022-08-26T06:58:50;17.77;;;7.55;;
59468;SDS011;45277;52.768;18.262;2022-08-26T07:00:22;12.57;;;7.22;;
59468;SDS011;45277;52.768;18.262;2022-08-26T07:01:55;15.25;;;7.47;;
59468;SDS011;45277;52.768;18.262;2022-08-26T07:03:27;13.43;;;7.20;;
59468;SDS011;45277;52.768;18.262;2022-08-26T07:05:00;13.60;;;7.05;;
59468;SDS011;45277;52.768;18.262;2022-08-26T07:06:34;13.35;;;7.00;;
59468;SDS011;45277;52.768;18.262;2022-08-26T07:08:08;13.07;;;6.82;;
59468;SDS011;45277;52.768;18.262;2022-08-26T07:09:42;13.82;;;6.40;;
59468;SDS011;45277;52.768;18.262;2022-08-26T07:11:16;10.52;;;6.20;;
59468;SDS011;45277;52.768;18.262;2022-08-26T07:12:50;15.55;;;6.57;;
59468;SDS011;45277;52.768;18.262;2022-08-26T07:16:03;12.10;;;6.55;;
59468;SDS011;45277;52.768;18.262;2022-08-26T07:17:39;11.18;;;6.65;;
59468;SDS011;45277;52.768;18.262;2022-08-26T07:19:14;10.13;;;6.28;;
59468;SDS011;45277;52.768;18.262;2022-08-26T07:22:24;13.93;;;6.00;;
59468;SDS011;45277;52.768;18.262;2022-08-26T07:23:55;14.98;;;6.25;;
59468;SDS011;45277;52.768;18.262;2022-08-26T07:25:27;15.25;;;6.00;;
59468;SDS011;45277;52.768;18.262;2022-08-26T07:27:00;19.25;;;5.82;;
59468;SDS011;45277;52.768;18.262;2022-08-26T07:28:36;9.35;;;5.97;;
59468;SDS011;45277;52.768;18.262;2022-08-26T07:30:09;12.52;;;5.93;;
59468;SDS011;45277;52.768;18.262;2022-08-26T07:31:42;13.98;;;6.13;;
59468;SDS011;45277;52.768;18.262;2022-08-26T07:33:15;13.25;;;6.32;;
59468;SDS011;45277;52.768;18.262;2022-08-26T07:34:57;17.08;;;5.72;;
59468;SDS011;45277;52.768;18.262;2022-08-26T07:36:31;10.05;;;5.82;;
59468;SDS011;45277;52.768;18.262;2022-08-26T07:38:03;8.20;;;5.50;;
59468;SDS011;45277;52.768;18.262;2022-08-26T07:39:35;13.50;;;5.70;;
59468;SDS011;45277;52.768;18.262;2022-08-26T07:41:11;11.07;;;6.05;;
59468;SDS011;45277;52.768;18.262;2022-08-26T07:42:47;10.18;;;5.50;;
59468;SDS011;45277;52.768;18.262;2022-08-26T07:44:23;12.13;;;5.43;;
59468;SDS011;45277;52.768;18.262;2022-08-26T07:45:57;12.02;;;5.90;;
59468;SDS011;45277;52.768;18.262;2022-08-26T07:47:31;14.93;;;5.72;;
59468;SDS011;45277;52.768;18.262;2022-08-26T07:49:05;9.38;;;5.43;;
59468;SDS011;45277;52.768;18.262;2022-08-26T07:50:37;11.25;;;5.28;;
59468;SDS011;45277;52.768;18.262;2022-08-26T07:52:12;15.38;;;5.55;;
59468;SDS011;45277;52.768;18.262;2022-08-26T07:53:44;10.95;;;5.35;;
59468;SDS011;45277;52.768;18.262;2022-08-26T07:55:23;10.07;;;5.45;;
59468;SDS011;45277;52.768;18.262;2022-08-26T07:56:55;9.13;;;5.20;;
59468;SDS011;45277;52.768;18.262;2022-08-26T07:58:28;12.75;;;5.32;;
59468;SDS011;45277;52.768;18.262;2022-08-26T08:00:07;8.38;;;5.05;;
59468;SDS011;45277;52.768;18.262;2022-08-26T08:01:42;13.32;;;5.70;;
59468;SDS011;45277;52.768;18.262;2022-08-26T08:03:13;15.50;;;5.68;;
59468;SDS011;45277;52.768;18.262;2022-08-26T08:04:46;10.98;;;4.90;;
59468;SDS011;45277;52.768;18.262;2022-08-26T08:06:22;12.27;;;5.78;;
59468;SDS011;45277;52.768;18.262;2022-08-26T08:07:55;11.95;;;4.68;;
59468;SDS011;45277;52.768;18.262;2022-08-26T08:09:28;17.70;;;5.18;;
59468;SDS011;45277;52.768;18.262;2022-08-26T08:11:06;12.88;;;4.75;;
59468;SDS011;45277;52.768;18.262;2022-08-26T08:12:41;8.77;;;5.20;;
59468;SDS011;45277;52.768;18.262;2022-08-26T08:14:13;14.38;;;5.07;;
59468;SDS011;45277;52.768;18.262;2022-08-26T08:15:46;12.93;;;4.80;;
59468;SDS011;45277;52.768;18.262;2022-08-26T08:17:23;9.88;;;4.97;;
59468;SDS011;45277;52.768;18.262;2022-08-26T08:20:46;13.48;;;4.95;;
59468;SDS011;45277;52.768;18.262;2022-08-26T08:22:24;11.23;;;5.00;;
59468;SDS011;45277;52.768;18.262;2022-08-26T08:23:56;12.25;;;4.93;;
59468;SDS011;45277;52.768;18.262;2022-08-26T08:25:31;15.18;;;4.90;;
59468;SDS011;45277;52.768;18.262;2022-08-26T08:27:05;9.98;;;4.43;;
59468;SDS011;45277;52.768;18.262;2022-08-26T08:28:37;10.60;;;4.20;;
59468;SDS011;45277;52.768;18.262;2022-08-26T08:30:10;14.43;;;4.70;;
59468;SDS011;45277;52.768;18.262;2022-08-26T08:31:43;13.00;;;5.00;;
59468;SDS011;45277;52.768;18.262;2022-08-26T08:33:15;10.05;;;4.45;;
59468;SDS011;45277;52.768;18.262;2022-08-26T08:34:55;8.73;;;4.68;;
59468;SDS011;45277;52.768;18.262;2022-08-26T08:36:28;11.00;;;4.47;;
59468;SDS011;45277;52.768;18.262;2022-08-26T08:38:00;6.80;;;4.28;;
59468;SDS011;45277;52.768;18.262;2022-08-26T08:39:40;8.20;;;4.03;;
59468;SDS011;45277;52.768;18.262;2022-08-26T08:43:12;9.35;;;3.88;;
59468;SDS011;45277;52.768;18.262;2022-08-26T08:44:47;13.95;;;4.70;;
59468;SDS011;45277;52.768;18.262;2022-08-26T08:46:21;14.77;;;4.30;;
59468;SDS011;45277;52.768;18.262;2022-08-26T08:47:55;16.17;;;4.40;;
59468;SDS011;45277;52.768;18.262;2022-08-26T08:49:31;11.27;;;4.10;;
59468;SDS011;45277;52.768;18.262;2022-08-26T08:51:25;12.50;;;4.57;;
59468;SDS011;45277;52.768;18.262;2022-08-26T08:54:53;18.63;;;4.18;;
59468;SDS011;45277;52.768;18.262;2022-08-26T08:56:36;21.02;;;4.18;;
59468;SDS011;45277;52.768;18.262;2022-08-26T08:58:12;8.63;;;3.70;;
59468;SDS011;45277;52.768;18.262;2022-08-26T09:00:00;14.32;;;4.00;;
59468;SDS011;45277;52.768;18.262;2022-08-26T09:03:46;10.48;;;3.60;;
59468;SDS011;45277;52.768;18.262;2022-08-26T09:05:35;9.32;;;3.80;;
59468;SDS011;45277;52.768;18.262;2022-08-26T09:07:18;14.32;;;3.92;;
59468;SDS011;45277;52.768;18.262;2022-08-26T09:09:13;16.17;;;4.28;;
59468;SDS011;45277;52.768;18.262;2022-08-26T09:10:55;14.23;;;3.90;;
59468;SDS011;45277;52.768;18.262;2022-08-26T09:12:32;11.98;;;4.40;;
59468;SDS011;45277;52.768;18.262;2022-08-26T09:14:04;11.50;;;3.90;;
59468;SDS011;45277;52.768;18.262;2022-08-26T09:19:46;8.52;;;3.65;;
59468;SDS011;45277;52.768;18.262;2022-08-26T09:21:22;11.02;;;3.63;;
59468;SDS011;45277;52.768;18.262;2022-08-26T09:24:39;12.07;;;3.83;;
59468;SDS011;45277;52.768;18.262;2022-08-26T09:26:46;14.90;;;4.57;;
59468;SDS011;45277;52.768;18.262;2022-08-26T09:28:13;8.02;;;3.78;;
59468;SDS011;45277;52.768;18.262;2022-08-26T09:29:50;11.55;;;4.18;;
59468;SDS011;45277;52.768;18.262;2022-08-26T09:31:25;13.85;;;4.20;;
59468;SDS011;45277;52.768;18.262;2022-08-26T09:33:08;9.27;;;4.03;;
59468;SDS011;45277;52.768;18.262;2022-08-26T09:36:43;14.13;;;4.43;;
59468;SDS011;45277;52.768;18.262;2022-08-26T09:38:24;12.07;;;3.88;;
59468;SDS011;45277;52.768;18.262;2022-08-26T09:43:36;11.43;;;4.15;;
59468;SDS011;45277;52.768;18.262;2022-08-26T09:45:10;17.17;;;3.97;;